createdAt,value
2022-11-08T00:02:14.896Z,7.60
2022-11-08T00:04:42.761Z,8.00
2022-11-08T00:07:29.398Z,10.10
2022-11-08T00:10:14.842Z,6.80
2022-11-08T00:13:01.307Z,5.65
2022-11-08T00:15:29.449Z,6.20
2022-11-08T00:17:57.271Z,5.88
2022-11-08T00:20:25.046Z,8.43
2022-11-08T00:22:52.799Z,5.40
2022-11-08T00:25:20.531Z,10.65
2022-11-08T00:27:49.633Z,7.97
2022-11-08T00:30:17.631Z,10.40
2022-11-08T00:32:45.365Z,8.50
2022-11-08T00:35:13.212Z,7.72
2022-11-08T00:37:41.143Z,8.30
2022-11-08T00:40:10.142Z,9.35
2022-11-08T00:42:37.930Z,15.07
2022-11-08T00:45:08.179Z,6.10
2022-11-08T00:47:35.965Z,5.95
2022-11-08T00:50:03.812Z,7.65
2022-11-08T00:52:31.501Z,6.60
2022-11-08T00:54:59.298Z,5.55
2022-11-08T00:57:46.799Z,10.50
2022-11-08T01:00:17.078Z,7.63
2022-11-08T01:02:44.943Z,6.72
2022-11-08T01:05:12.758Z,6.63
2022-11-08T01:07:40.551Z,8.00
2022-11-08T01:10:09.519Z,5.93
2022-11-08T01:12:37.284Z,6.53
2022-11-08T01:15:05.366Z,8.32
2022-11-08T01:17:34.518Z,7.57
2022-11-08T01:20:02.639Z,9.23
2022-11-08T01:22:30.376Z,10.27
2022-11-08T01:24:58.096Z,9.32
2022-11-08T01:27:25.856Z,9.38
2022-11-08T01:29:53.581Z,7.65
2022-11-08T01:32:21.354Z,9.02
2022-11-08T01:34:50.477Z,7.03
2022-11-08T01:37:18.252Z,11.95
2022-11-08T01:39:45.967Z,9.77
2022-11-08T01:42:13.721Z,6.53
2022-11-08T01:44:59.835Z,11.75
2022-11-08T01:47:28.247Z,6.95
2022-11-08T01:50:00.060Z,11.20
2022-11-08T01:52:32.591Z,9.95
2022-11-08T01:55:09.813Z,11.25
2022-11-08T01:57:43.862Z,9.85
2022-11-08T02:00:13.450Z,11.85
2022-11-08T02:02:43.761Z,12.25
2022-11-08T02:05:26.453Z,7.72
2022-11-08T02:07:57.501Z,12.43
2022-11-08T02:10:30.522Z,13.35
2022-11-08T02:13:02.543Z,10.52
2022-11-08T02:15:32.658Z,12.25
2022-11-08T02:18:01.137Z,12.10
2022-11-08T02:20:30.547Z,14.88
2022-11-08T02:23:06.294Z,11.95
2022-11-08T02:25:35.479Z,8.80
2022-11-08T02:28:03.248Z,10.35
2022-11-08T02:30:34.289Z,8.98
2022-11-08T02:33:02.070Z,10.20
2022-11-08T02:35:30.091Z,12.57
2022-11-08T02:37:57.991Z,12.82
2022-11-08T02:40:25.698Z,8.35
2022-11-08T02:42:54.749Z,13.65
2022-11-08T02:45:22.534Z,9.25
2022-11-08T02:47:50.224Z,8.30
2022-11-08T02:50:18.185Z,11.20
2022-11-08T02:52:45.984Z,10.80
2022-11-08T02:55:13.700Z,9.63
2022-11-08T02:57:41.458Z,7.78
2022-11-08T03:00:12.337Z,11.88
2022-11-08T03:02:40.275Z,11.05
2022-11-08T03:05:08.709Z,12.02
2022-11-08T03:07:36.421Z,9.85
2022-11-08T03:10:04.645Z,7.18
2022-11-08T03:12:32.370Z,9.00
2022-11-08T03:15:00.079Z,10.85
2022-11-08T03:17:29.303Z,8.50
2022-11-08T03:19:57.204Z,9.90
2022-11-08T03:22:25.079Z,6.85
2022-11-08T03:24:52.921Z,8.55
2022-11-08T03:27:21.002Z,10.63
2022-11-08T03:29:48.980Z,14.32
2022-11-08T03:32:17.368Z,15.85
2022-11-08T03:34:46.607Z,10.32
2022-11-08T03:37:14.404Z,11.88
2022-11-08T03:39:42.222Z,11.95
2022-11-08T03:42:09.952Z,11.52
2022-11-08T03:44:37.729Z,8.00
2022-11-08T03:47:05.563Z,11.63
2022-11-08T03:49:33.347Z,7.93
2022-11-08T03:52:02.708Z,9.88
2022-11-08T03:54:30.433Z,8.27
2022-11-08T03:56:58.217Z,6.60
2022-11-08T03:59:25.932Z,13.02
2022-11-08T04:01:53.721Z,6.38
2022-11-08T04:04:22.160Z,7.88
2022-11-08T04:06:49.994Z,6.15
2022-11-08T04:09:21.704Z,8.60
2022-11-08T04:12:07.275Z,7.38
2022-11-08T04:14:52.503Z,7.82
2022-11-08T04:17:40.351Z,6.43
2022-11-08T04:20:28.245Z,6.70
2022-11-08T04:22:56.063Z,10.60
2022-11-08T04:25:25.206Z,11.00
2022-11-08T04:27:52.924Z,8.23
2022-11-08T04:30:20.658Z,12.13
2022-11-08T04:32:48.436Z,7.47
2022-11-08T04:35:16.370Z,11.98
2022-11-08T04:37:44.112Z,8.27
2022-11-08T04:40:13.686Z,9.63
2022-11-08T04:42:46.175Z,10.55
2022-11-08T04:45:14.027Z,9.27
2022-11-08T04:47:47.256Z,12.23
2022-11-08T04:50:16.756Z,9.43
2022-11-08T04:52:44.486Z,9.18
2022-11-08T04:55:12.224Z,7.32
2022-11-08T04:57:40.149Z,7.55
2022-11-08T05:00:10.935Z,8.35
2022-11-08T05:02:38.865Z,6.97
2022-11-08T05:05:08.008Z,15.20
2022-11-08T05:07:35.775Z,30.23
2022-11-08T05:10:03.558Z,17.67
2022-11-08T05:12:31.307Z,21.63
2022-11-08T05:14:59.018Z,11.73
2022-11-08T05:17:28.164Z,12.20
2022-11-08T05:20:13.204Z,8.85
2022-11-08T05:22:58.698Z,11.32
2022-11-08T05:25:26.412Z,10.57
2022-11-08T05:27:54.265Z,14.23
2022-11-08T05:30:22.075Z,12.95
2022-11-08T05:32:53.125Z,13.35
2022-11-08T05:35:22.920Z,11.23
2022-11-08T05:37:50.717Z,13.73
2022-11-08T05:40:18.656Z,15.27
2022-11-08T05:42:46.603Z,11.90
2022-11-08T05:45:14.373Z,15.00
2022-11-08T05:47:45.174Z,12.18
2022-11-08T05:50:19.104Z,13.00
2022-11-08T05:52:47.598Z,14.27
2022-11-08T05:55:15.446Z,13.02
2022-11-08T05:57:44.452Z,14.68
2022-11-08T06:00:13.619Z,13.73
2022-11-08T06:02:41.772Z,11.45
2022-11-08T06:05:10.380Z,13.52
2022-11-08T06:07:39.648Z,12.93
2022-11-08T06:10:08.347Z,13.85
2022-11-08T06:12:36.164Z,12.32
2022-11-08T06:15:03.908Z,18.55
2022-11-08T06:17:32.086Z,27.73
2022-11-08T06:19:59.801Z,20.25
2022-11-08T06:22:27.527Z,20.92
2022-11-08T06:24:57.309Z,20.75
2022-11-08T06:27:25.047Z,25.58
2022-11-08T06:29:52.803Z,80.07
2022-11-08T06:32:20.638Z,61.95
2022-11-08T06:34:49.021Z,73.75
2022-11-08T06:37:17.331Z,61.25
2022-11-08T06:39:45.151Z,101.95
2022-11-08T06:42:14.685Z,125.20
2022-11-08T06:44:42.433Z,43.38
2022-11-08T06:47:10.566Z,43.88
2022-11-08T06:49:38.279Z,35.70
2022-11-08T06:52:06.041Z,45.85
2022-11-08T06:54:33.778Z,49.28
2022-11-08T06:57:02.213Z,61.40
2022-11-08T06:59:31.397Z,41.40
2022-11-08T07:01:59.329Z,51.95
2022-11-08T07:04:27.123Z,54.30
2022-11-08T07:06:56.438Z,47.92
2022-11-08T07:09:24.186Z,34.90
2022-11-08T07:11:51.864Z,35.47
2022-11-08T07:14:19.621Z,41.40
2022-11-08T07:16:48.998Z,58.67
2022-11-08T07:19:17.010Z,47.60
2022-11-08T07:21:44.716Z,43.42
2022-11-08T07:24:12.481Z,42.85
2022-11-08T07:26:40.213Z,79.10
2022-11-08T07:29:11.006Z,37.10
2022-11-08T07:31:41.191Z,39.70
2022-11-08T07:34:10.310Z,41.78
2022-11-08T07:36:38.075Z,37.40
2022-11-08T07:39:06.897Z,99.78
2022-11-08T07:41:34.777Z,40.00
2022-11-08T07:44:02.546Z,55.03
2022-11-08T07:46:30.764Z,193.85
2022-11-08T07:48:58.834Z,105.88
2022-11-08T07:51:28.016Z,238.65
2022-11-08T07:54:00.336Z,118.78
2022-11-08T07:56:30.558Z,226.35
2022-11-08T07:58:58.286Z,64.95
2022-11-08T08:01:26.075Z,127.70
2022-11-08T08:03:53.834Z,99.82
2022-11-08T08:06:22.188Z,45.75
2022-11-08T08:08:51.591Z,39.80
2022-11-08T08:11:19.790Z,68.15
2022-11-08T08:13:47.611Z,33.30
2022-11-08T08:16:15.320Z,32.60
2022-11-08T08:18:43.030Z,32.80
2022-11-08T08:21:10.748Z,21.73
2022-11-08T08:23:38.443Z,23.85
2022-11-08T08:26:07.744Z,60.42
2022-11-08T08:28:35.505Z,26.52
2022-11-08T08:31:03.236Z,18.77
2022-11-08T08:33:31.003Z,15.88
2022-11-08T08:36:00.830Z,19.42
2022-11-08T08:38:29.091Z,17.08
2022-11-08T08:40:56.776Z,18.13
2022-11-08T08:43:27.997Z,13.75
2022-11-08T08:45:56.189Z,15.50
2022-11-08T08:48:23.939Z,13.27
2022-11-08T08:50:51.723Z,15.23
2022-11-08T08:53:19.782Z,12.98
2022-11-08T08:55:48.374Z,17.17
2022-11-08T08:58:16.185Z,16.08
2022-11-08T09:03:34.661Z,17.77
2022-11-08T09:06:02.846Z,13.82
2022-11-08T09:08:31.542Z,15.25
2022-11-08T09:11:00.779Z,17.50
2022-11-08T09:13:31.006Z,14.60
2022-11-08T09:16:02.673Z,11.48
2022-11-08T09:18:30.735Z,10.38
2022-11-08T09:20:58.953Z,14.65
2022-11-08T09:23:27.017Z,10.55
2022-11-08T09:25:58.382Z,11.55
2022-11-08T09:28:31.034Z,24.85
2022-11-08T09:31:03.081Z,17.55
2022-11-08T09:33:31.025Z,10.57
2022-11-08T09:36:00.358Z,11.80
2022-11-08T09:38:28.120Z,14.82
2022-11-08T09:41:08.817Z,11.40
2022-11-08T09:43:58.641Z,13.90
2022-11-08T09:46:36.179Z,18.80
2022-11-08T09:49:06.749Z,19.73
2022-11-08T09:51:36.339Z,15.43
2022-11-08T09:54:06.509Z,19.98
2022-11-08T09:56:36.988Z,16.50
2022-11-08T09:59:12.851Z,13.82
2022-11-08T10:01:42.718Z,14.25
2022-11-08T10:04:19.459Z,17.10
2022-11-08T10:07:10.308Z,16.40
2022-11-08T10:09:54.548Z,16.17
2022-11-08T10:12:27.017Z,14.15
2022-11-08T10:15:08.690Z,15.55
2022-11-08T10:17:52.384Z,15.73
2022-11-08T10:20:31.042Z,12.50
2022-11-08T10:23:07.573Z,13.40
2022-11-08T10:25:42.456Z,11.35
2022-11-08T10:28:16.012Z,11.57
2022-11-08T10:30:47.595Z,14.35
2022-11-08T10:33:21.851Z,13.07
2022-11-08T10:36:01.880Z,11.13
2022-11-08T10:38:35.841Z,12.90
2022-11-08T10:41:14.054Z,11.77
2022-11-08T10:43:44.264Z,14.10
2022-11-08T10:46:25.717Z,21.30
2022-11-08T10:48:54.856Z,11.90
2022-11-08T10:51:22.656Z,9.32
2022-11-08T10:53:50.362Z,10.27
2022-11-08T10:56:18.089Z,10.00
2022-11-08T10:58:45.811Z,12.23
2022-11-08T11:01:20.204Z,10.20
2022-11-08T11:03:49.300Z,8.32
2022-11-08T11:06:27.597Z,10.35
2022-11-08T11:08:57.301Z,14.48
2022-11-08T11:11:27.677Z,9.98
2022-11-08T11:14:16.222Z,12.50
2022-11-08T11:16:55.735Z,11.02
2022-11-08T11:19:26.476Z,10.65
2022-11-08T11:22:02.765Z,12.65
2022-11-08T11:24:30.914Z,12.20
2022-11-08T11:27:03.253Z,11.90
2022-11-08T11:29:32.493Z,7.13
2022-11-08T11:32:19.667Z,11.45
2022-11-08T11:34:53.513Z,11.30
2022-11-08T11:37:33.811Z,7.20
2022-11-08T11:40:11.658Z,8.70
2022-11-08T11:42:47.361Z,7.38
2022-11-08T11:45:20.723Z,12.02
2022-11-08T11:47:53.473Z,8.07
2022-11-08T11:50:29.804Z,13.93
2022-11-08T11:53:01.180Z,7.22
2022-11-08T11:55:39.989Z,10.75
2022-11-08T11:58:24.018Z,8.48
2022-11-08T12:00:58.484Z,8.63
2022-11-08T12:03:46.745Z,5.20
2022-11-08T12:06:28.408Z,8.60
2022-11-08T12:09:11.538Z,11.90
2022-11-08T12:11:52.192Z,10.50
2022-11-08T12:14:44.933Z,5.10
2022-11-08T12:17:31.699Z,6.32
2022-11-08T12:20:21.582Z,6.72
2022-11-08T12:23:08.573Z,5.72
2022-11-08T12:25:44.818Z,4.72
2022-11-08T12:28:30.993Z,3.97
2022-11-08T12:31:10.174Z,9.63
2022-11-08T12:33:52.705Z,7.70
2022-11-08T12:36:31.680Z,7.05
2022-11-08T12:39:09.272Z,5.85
2022-11-08T12:41:50.910Z,15.05
2022-11-08T12:44:38.393Z,3.88
2022-11-08T12:47:18.795Z,9.02
2022-11-08T12:49:56.268Z,9.65
2022-11-08T12:52:40.184Z,2.58
2022-11-08T12:55:24.837Z,5.20
2022-11-08T12:57:55.651Z,8.98
2022-11-08T13:00:23.678Z,10.20
2022-11-08T13:03:06.265Z,4.00
2022-11-08T13:05:38.638Z,9.45
2022-11-08T13:08:14.163Z,9.57
2022-11-08T13:10:51.219Z,5.35
2022-11-08T13:13:31.230Z,5.60
2022-11-08T13:16:10.412Z,5.30
2022-11-08T13:18:45.318Z,3.33
2022-11-08T13:21:42.109Z,3.33
2022-11-08T13:24:49.805Z,6.20
2022-11-08T13:27:34.063Z,5.22
2022-11-08T13:30:43.036Z,9.90
2022-11-08T13:33:27.365Z,6.15
2022-11-08T13:36:08.546Z,4.15
2022-11-08T13:38:50.546Z,2.28
2022-11-08T13:41:19.538Z,2.78
2022-11-08T13:43:49.015Z,5.97
2022-11-08T13:46:47.182Z,5.13
2022-11-08T13:49:22.473Z,5.22
2022-11-08T13:51:51.566Z,2.83
2022-11-08T13:54:50.003Z,5.57
2022-11-08T13:57:20.956Z,10.20
2022-11-08T13:59:58.851Z,3.15
2022-11-08T14:02:42.248Z,6.13
2022-11-08T14:05:32.674Z,3.97
2022-11-08T14:08:20.927Z,6.00
2022-11-08T14:11:22.514Z,7.43
2022-11-08T14:14:33.992Z,2.85
2022-11-08T14:17:24.559Z,3.25
2022-11-08T14:19:53.756Z,2.50
2022-11-08T14:22:26.067Z,4.57
2022-11-08T14:24:55.866Z,8.63
2022-11-08T14:27:35.535Z,4.88
2022-11-08T14:30:03.735Z,1.95
2022-11-08T14:32:31.494Z,5.60
2022-11-08T14:35:13.383Z,3.25
2022-11-08T14:37:44.772Z,5.10
2022-11-08T14:40:23.747Z,4.78
2022-11-08T14:42:52.588Z,1.20
2022-11-08T14:45:25.644Z,8.65
2022-11-08T14:47:55.328Z,2.00
2022-11-08T14:50:25.116Z,4.90
2022-11-08T14:52:54.290Z,1.75
2022-11-08T14:55:25.418Z,1.55
2022-11-08T14:57:53.167Z,2.65
2022-11-08T15:00:24.234Z,4.25
2022-11-08T15:02:54.883Z,4.10
2022-11-08T15:05:30.416Z,1.50
2022-11-08T15:08:00.842Z,2.55
2022-11-08T15:10:29.424Z,5.97
2022-11-08T15:12:58.320Z,4.57
2022-11-08T15:15:29.753Z,2.25
2022-11-08T15:18:13.181Z,2.80
2022-11-08T15:20:41.918Z,2.08
2022-11-08T15:23:34.288Z,3.28
2022-11-08T15:28:34.342Z,2.15
2022-11-08T15:31:04.251Z,2.45
2022-11-08T15:33:35.725Z,4.40
2022-11-08T15:36:04.897Z,6.88
2022-11-08T15:38:37.720Z,2.78
2022-11-08T15:41:07.581Z,1.67
2022-11-08T15:43:40.063Z,2.28
2022-11-08T15:46:23.492Z,5.88
2022-11-08T15:48:57.690Z,3.10
2022-11-08T15:51:25.839Z,5.93
2022-11-08T15:53:54.939Z,3.88
2022-11-08T15:56:22.757Z,3.13
2022-11-08T15:58:50.666Z,2.80
2022-11-08T16:01:23.027Z,3.95
2022-11-08T16:03:50.912Z,3.75
2022-11-08T16:06:18.671Z,3.72
2022-11-08T16:08:46.460Z,3.67
2022-11-08T16:11:20.601Z,5.55
2022-11-08T16:13:49.082Z,3.75
2022-11-08T16:16:18.366Z,4.70
2022-11-08T16:18:46.439Z,3.03
2022-11-08T16:21:15.617Z,2.83
2022-11-08T16:23:43.363Z,1.98
2022-11-08T16:26:18.010Z,1.98
2022-11-08T16:28:45.939Z,2.20
2022-11-08T16:31:15.369Z,2.42
2022-11-08T16:33:44.961Z,4.03
2022-11-08T16:36:19.847Z,2.60
2022-11-08T16:38:52.001Z,5.75
2022-11-08T16:43:49.481Z,2.38
2022-11-08T16:46:20.186Z,1.95
2022-11-08T16:48:50.408Z,2.90
2022-11-08T16:51:20.100Z,5.47
2022-11-08T16:53:48.661Z,3.40
2022-11-08T16:56:16.851Z,6.45
2022-11-08T16:58:46.608Z,6.00
2022-11-08T17:01:18.244Z,9.70
2022-11-08T17:03:45.998Z,13.20
2022-11-08T17:06:18.062Z,9.63
2022-11-08T17:08:46.143Z,9.48
2022-11-08T17:11:17.478Z,15.90
2022-11-08T17:13:47.305Z,4.70
2022-11-08T17:16:16.045Z,9.50
2022-11-08T17:18:46.445Z,4.13
2022-11-08T17:21:43.017Z,4.88
2022-11-08T17:24:04.420Z,6.35
2022-11-08T17:26:32.120Z,6.60
2022-11-08T17:29:01.216Z,8.30
2022-11-08T17:31:29.242Z,2.60
2022-11-08T17:34:00.196Z,3.67
2022-11-08T17:36:27.970Z,7.40
2022-11-08T17:38:55.748Z,9.18
2022-11-08T17:41:23.512Z,5.50
2022-11-08T17:43:51.482Z,3.45
2022-11-08T17:46:20.593Z,2.30
2022-11-08T17:48:48.676Z,3.58
2022-11-08T17:51:16.432Z,5.82
2022-11-08T17:53:44.371Z,5.30
2022-11-08T17:56:13.140Z,3.80
2022-11-08T17:58:41.668Z,4.32
2022-11-08T18:01:09.951Z,5.45
2022-11-08T18:03:39.498Z,8.63
2022-11-08T18:06:09.754Z,3.47
2022-11-08T18:08:37.611Z,3.65
2022-11-08T18:11:08.194Z,2.38
2022-11-08T18:13:36.452Z,4.55
2022-11-08T18:16:09.085Z,5.75
2022-11-08T18:18:37.160Z,6.03
2022-11-08T18:21:06.932Z,4.13
2022-11-08T18:23:35.276Z,3.05
2022-11-08T18:26:03.283Z,6.05
2022-11-08T18:28:31.763Z,4.90
2022-11-08T18:31:06.251Z,8.20
2022-11-08T18:33:34.522Z,6.72
2022-11-08T18:36:08.359Z,4.95
2022-11-08T18:38:39.154Z,5.82
2022-11-08T18:41:07.683Z,6.32
2022-11-08T18:43:36.361Z,5.13
2022-11-08T18:46:04.997Z,6.65
2022-11-08T18:48:35.553Z,2.97
2022-11-08T18:51:03.917Z,4.10
2022-11-08T18:53:33.053Z,6.10
2022-11-08T18:56:01.418Z,2.90
2022-11-08T18:58:29.331Z,6.07
2022-11-08T19:00:58.080Z,4.05
2022-11-08T19:03:26.864Z,6.50
2022-11-08T19:05:54.899Z,4.45
2022-11-08T19:08:25.135Z,6.20
2022-11-08T19:10:56.441Z,8.07
2022-11-08T19:13:26.515Z,8.40
2022-11-08T19:15:57.858Z,9.88
2022-11-08T19:18:25.934Z,7.43
2022-11-08T19:20:57.596Z,4.05
2022-11-08T19:23:25.613Z,7.20
2022-11-08T19:25:59.076Z,11.32
2022-11-08T19:28:31.730Z,4.80
2022-11-08T19:31:00.961Z,6.15
2022-11-08T19:33:30.628Z,4.70
2022-11-08T19:36:03.075Z,4.40
2022-11-08T19:38:32.845Z,3.17
2022-11-08T19:41:03.853Z,3.25
2022-11-08T19:43:31.733Z,6.30
2022-11-08T19:46:03.508Z,5.88
2022-11-08T19:48:32.380Z,2.38
2022-11-08T19:51:01.947Z,6.97
2022-11-08T19:53:29.786Z,5.03
2022-11-08T19:56:01.434Z,6.40
2022-11-08T19:58:31.646Z,3.78
2022-11-08T20:00:59.460Z,5.55
2022-11-08T20:03:27.196Z,5.30
2022-11-08T20:05:55.334Z,5.05
2022-11-08T20:08:23.336Z,4.75
2022-11-08T20:10:51.623Z,4.88
2022-11-08T20:13:19.685Z,3.25
2022-11-08T20:15:48.769Z,4.03
2022-11-08T20:18:17.344Z,3.38
2022-11-08T20:20:45.493Z,2.70
2022-11-08T20:23:16.057Z,9.23
2022-11-08T20:25:44.393Z,12.07
2022-11-08T20:28:12.319Z,7.60
2022-11-08T20:30:41.522Z,6.32
2022-11-08T20:33:10.986Z,4.90
2022-11-08T20:35:39.743Z,9.98
2022-11-08T20:38:07.551Z,7.60
2022-11-08T20:40:35.452Z,7.18
2022-11-08T20:43:03.248Z,6.70
2022-11-08T20:45:31.024Z,7.78
2022-11-08T20:48:02.663Z,7.03
2022-11-08T20:50:32.106Z,16.55
2022-11-08T20:52:59.844Z,6.65
2022-11-08T20:55:29.408Z,7.25
2022-11-08T20:57:57.641Z,5.82
2022-11-08T21:00:52.089Z,31.50
2022-11-08T21:03:18.713Z,4.40
2022-11-08T21:05:53.030Z,5.55
2022-11-08T21:11:10.166Z,10.50
2022-11-08T21:13:39.994Z,11.43
2022-11-08T21:16:28.840Z,12.45
2022-11-08T21:18:56.265Z,21.02
2022-11-08T21:21:26.314Z,21.33
2022-11-08T21:23:54.610Z,21.70
2022-11-08T21:26:23.651Z,22.83
2022-11-08T21:28:52.158Z,24.98
2022-11-08T21:31:20.193Z,21.80
2022-11-08T21:33:48.080Z,14.60
2022-11-08T21:36:17.372Z,18.88
2022-11-08T21:38:46.652Z,12.02
2022-11-08T21:41:14.479Z,12.27
2022-11-08T21:43:43.990Z,17.30
2022-11-08T21:46:22.176Z,13.50
2022-11-08T21:48:54.963Z,13.75
2022-11-08T21:51:23.144Z,14.05
2022-11-08T21:53:55.186Z,22.80
2022-11-08T21:56:24.439Z,16.08
2022-11-08T21:58:52.580Z,20.33
2022-11-08T22:01:23.221Z,16.35
2022-11-08T22:03:54.897Z,11.60
2022-11-08T22:06:22.726Z,12.10
2022-11-08T22:08:50.466Z,8.93
2022-11-08T22:11:19.886Z,18.75
2022-11-08T22:13:47.689Z,27.48
2022-11-08T22:16:15.625Z,40.33
2022-11-08T22:19:03.773Z,17.33
2022-11-08T22:21:41.362Z,17.67
2022-11-08T22:24:11.600Z,14.32
2022-11-08T22:26:42.066Z,8.70
2022-11-08T22:29:10.636Z,17.05
2022-11-08T22:31:39.065Z,14.15
2022-11-08T22:34:08.583Z,17.35
2022-11-08T22:36:42.882Z,14.32
2022-11-08T22:39:13.602Z,15.00
2022-11-08T22:41:42.874Z,16.08
2022-11-08T22:44:12.344Z,21.33
2022-11-08T22:46:41.266Z,16.73
2022-11-08T22:49:08.986Z,13.60
2022-11-08T22:51:36.761Z,11.95
2022-11-08T22:54:05.050Z,11.27
2022-11-08T22:56:32.927Z,10.45
2022-11-08T22:59:02.310Z,10.30
2022-11-08T23:01:30.119Z,8.40
2022-11-08T23:03:57.921Z,7.75
2022-11-08T23:06:25.788Z,7.30
2022-11-08T23:08:53.682Z,7.07
2022-11-08T23:11:39.106Z,6.50
2022-11-08T23:14:31.124Z,7.65
2022-11-08T23:17:03.372Z,5.72
2022-11-08T23:19:48.626Z,5.63
2022-11-08T23:22:36.005Z,4.15
2022-11-08T23:25:03.818Z,9.40
2022-11-08T23:27:49.234Z,5.90
2022-11-08T23:30:36.962Z,3.05
2022-11-08T23:33:06.717Z,4.05
2022-11-08T23:35:34.629Z,5.03
2022-11-08T23:38:02.378Z,6.78
2022-11-08T23:40:47.713Z,3.75
2022-11-08T23:43:34.969Z,4.20
2022-11-08T23:46:08.472Z,6.88
2022-11-08T23:48:36.776Z,6.28
2022-11-08T23:51:05.530Z,6.57
2022-11-08T23:53:35.094Z,7.40
2022-11-08T23:56:02.911Z,14.15
2022-11-08T23:58:30.707Z,3.40
